sensor_id;sensor_type;location;lat;lon;timestamp;P1;P2;P0
62631;PMS5003;48703;51.248;-0.546;2023-04-16T00:01:53;20.61;20.37;
62631;PMS5003;48703;51.248;-0.546;2023-04-16T00:04:55;25.03;23.70;
62631;PMS5003;48703;51.248;-0.546;2023-04-16T00:07:57;23.36;23.13;
62631;PMS5003;48703;51.248;-0.546;2023-04-16T00:10:59;22.45;21.33;
62631;PMS5003;48703;51.248;-0.546;2023-04-16T00:14:01;22.74;21.83;
62631;PMS5003;48703;51.248;-0.546;2023-04-16T00:17:02;22.13;21.12;
62631;PMS5003;48703;51.248;-0.546;2023-04-16T00:20:04;22.37;21.19;
62631;PMS5003;48703;51.248;-0.546;2023-04-16T00:23:05;24.06;23.54;
62631;PMS5003;48703;51.248;-0.546;2023-04-16T00:26:07;22.63;21.73;
62631;PMS5003;48703;51.248;-0.546;2023-04-16T00:29:08;24.03;21.71;
62631;PMS5003;48703;51.248;-0.546;2023-04-16T00:32:10;22.37;20.90;
62631;PMS5003;48703;51.248;-0.546;2023-04-16T00:35:12;23.07;21.93;
62631;PMS5003;48703;51.248;-0.546;2023-04-16T00:38:14;23.10;23.06;
62631;PMS5003;48703;51.248;-0.546;2023-04-16T00:41:15;21.03;20.47;
62631;PMS5003;48703;51.248;-0.546;2023-04-16T00:44:17;25.36;22.67;
62631;PMS5003;48703;51.248;-0.546;2023-04-16T00:47:18;22.20;21.72;
62631;PMS5003;48703;51.248;-0.546;2023-04-16T00:50:20;21.93;21.71;
62631;PMS5003;48703;51.248;-0.546;2023-04-16T00:53:22;23.49;22.19;
62631;PMS5003;48703;51.248;-0.546;2023-04-16T00:56:23;25.96;24.25;
62631;PMS5003;48703;51.248;-0.546;2023-04-16T00:59:24;25.75;23.94;
62631;PMS5003;48703;51.248;-0.546;2023-04-16T01:02:25;29.36;26.51;
62631;PMS5003;48703;51.248;-0.546;2023-04-16T01:05:27;27.54;25.49;
62631;PMS5003;48703;51.248;-0.546;2023-04-16T01:08:28;28.63;26.86;
62631;PMS5003;48703;51.248;-0.546;2023-04-16T01:11:29;26.88;24.91;
62631;PMS5003;48703;51.248;-0.546;2023-04-16T01:14:31;26.43;24.01;
62631;PMS5003;48703;51.248;-0.546;2023-04-16T01:17:32;26.69;23.79;
62631;PMS5003;48703;51.248;-0.546;2023-04-16T01:20:34;23.04;22.61;
62631;PMS5003;48703;51.248;-0.546;2023-04-16T01:23:35;23.54;22.66;
62631;PMS5003;48703;51.248;-0.546;2023-04-16T01:26:37;23.43;21.88;
62631;PMS5003;48703;51.248;-0.546;2023-04-16T01:29:38;22.28;22.28;
62631;PMS5003;48703;51.248;-0.546;2023-04-16T01:32:39;22.39;21.88;
62631;PMS5003;48703;51.248;-0.546;2023-04-16T01:35:41;23.94;21.56;
62631;PMS5003;48703;51.248;-0.546;2023-04-16T01:38:42;23.73;21.83;
62631;PMS5003;48703;51.248;-0.546;2023-04-16T01:41:44;21.46;21.24;
62631;PMS5003;48703;51.248;-0.546;2023-04-16T01:44:46;24.41;22.74;
62631;PMS5003;48703;51.248;-0.546;2023-04-16T01:47:47;23.29;21.78;
62631;PMS5003;48703;51.248;-0.546;2023-04-16T01:50:47;23.67;22.13;
62631;PMS5003;48703;51.248;-0.546;2023-04-16T01:53:49;23.91;22.89;
62631;PMS5003;48703;51.248;-0.546;2023-04-16T01:56:50;25.14;22.78;
62631;PMS5003;48703;51.248;-0.546;2023-04-16T01:59:51;23.10;20.26;
62631;PMS5003;48703;51.248;-0.546;2023-04-16T02:02:53;25.06;22.41;
62631;PMS5003;48703;51.248;-0.546;2023-04-16T02:05:55;25.03;23.73;
62631;PMS5003;48703;51.248;-0.546;2023-04-16T02:08:57;25.30;24.44;
62631;PMS5003;48703;51.248;-0.546;2023-04-16T02:11:59;26.23;24.72;
62631;PMS5003;48703;51.248;-0.546;2023-04-16T02:15:01;24.09;22.62;
62631;PMS5003;48703;51.248;-0.546;2023-04-16T02:18:01;25.42;24.10;
62631;PMS5003;48703;51.248;-0.546;2023-04-16T02:21:02;28.48;26.68;
62631;PMS5003;48703;51.248;-0.546;2023-04-16T02:24:04;30.06;27.52;
62631;PMS5003;48703;51.248;-0.546;2023-04-16T02:27:05;26.83;25.17;
62631;PMS5003;48703;51.248;-0.546;2023-04-16T02:30:08;28.51;26.62;
62631;PMS5003;48703;51.248;-0.546;2023-04-16T02:33:09;28.14;27.12;
62631;PMS5003;48703;51.248;-0.546;2023-04-16T02:36:10;28.58;26.55;
62631;PMS5003;48703;51.248;-0.546;2023-04-16T02:39:12;27.01;26.42;
62631;PMS5003;48703;51.248;-0.546;2023-04-16T02:42:14;28.64;25.70;
62631;PMS5003;48703;51.248;-0.546;2023-04-16T02:45:14;31.84;28.79;
62631;PMS5003;48703;51.248;-0.546;2023-04-16T02:48:16;31.43;28.66;
62631;PMS5003;48703;51.248;-0.546;2023-04-16T02:51:18;30.27;26.49;
62631;PMS5003;48703;51.248;-0.546;2023-04-16T02:54:19;27.57;26.63;
62631;PMS5003;48703;51.248;-0.546;2023-04-16T02:57:21;29.23;27.57;
62631;PMS5003;48703;51.248;-0.546;2023-04-16T03:00:22;31.97;29.30;
62631;PMS5003;48703;51.248;-0.546;2023-04-16T03:03:24;31.75;29.78;
62631;PMS5003;48703;51.248;-0.546;2023-04-16T03:06:26;30.54;28.67;
62631;PMS5003;48703;51.248;-0.546;2023-04-16T03:09:27;32.59;29.81;
62631;PMS5003;48703;51.248;-0.546;2023-04-16T03:12:28;32.14;28.75;
62631;PMS5003;48703;51.248;-0.546;2023-04-16T03:15:30;31.83;28.71;
62631;PMS5003;48703;51.248;-0.546;2023-04-16T03:18:31;27.57;26.45;
62631;PMS5003;48703;51.248;-0.546;2023-04-16T03:21:32;29.60;28.17;
62631;PMS5003;48703;51.248;-0.546;2023-04-16T03:24:34;30.94;29.22;
62631;PMS5003;48703;51.248;-0.546;2023-04-16T03:27:36;29.30;27.54;
62631;PMS5003;48703;51.248;-0.546;2023-04-16T03:30:37;32.53;30.59;
62631;PMS5003;48703;51.248;-0.546;2023-04-16T03:33:39;31.31;30.17;
62631;PMS5003;48703;51.248;-0.546;2023-04-16T03:36:40;32.36;29.13;
62631;PMS5003;48703;51.248;-0.546;2023-04-16T03:39:41;31.74;30.84;
62631;PMS5003;48703;51.248;-0.546;2023-04-16T03:42:42;32.97;30.00;
62631;PMS5003;48703;51.248;-0.546;2023-04-16T03:45:44;33.03;30.40;
62631;PMS5003;48703;51.248;-0.546;2023-04-16T03:48:46;28.99;26.76;
62631;PMS5003;48703;51.248;-0.546;2023-04-16T03:51:47;30.07;27.62;
62631;PMS5003;48703;51.248;-0.546;2023-04-16T03:54:48;31.68;28.75;
62631;PMS5003;48703;51.248;-0.546;2023-04-16T03:57:50;27.61;26.01;
62631;PMS5003;48703;51.248;-0.546;2023-04-16T04:00:51;32.45;30.43;
62631;PMS5003;48703;51.248;-0.546;2023-04-16T04:03:53;32.42;29.83;
62631;PMS5003;48703;51.248;-0.546;2023-04-16T04:06:54;33.80;31.58;
62631;PMS5003;48703;51.248;-0.546;2023-04-16T04:09:56;34.75;31.90;
62631;PMS5003;48703;51.248;-0.546;2023-04-16T04:12:58;34.68;32.46;
62631;PMS5003;48703;51.248;-0.546;2023-04-16T04:16:00;37.06;34.62;
62631;PMS5003;48703;51.248;-0.546;2023-04-16T04:19:01;37.28;36.00;
62631;PMS5003;48703;51.248;-0.546;2023-04-16T04:22:02;36.42;32.70;
62631;PMS5003;48703;51.248;-0.546;2023-04-16T04:25:05;33.99;31.67;
62631;PMS5003;48703;51.248;-0.546;2023-04-16T04:28:06;32.52;30.86;
62631;PMS5003;48703;51.248;-0.546;2023-04-16T04:31:07;35.41;32.53;
62631;PMS5003;48703;51.248;-0.546;2023-04-16T04:34:08;35.19;32.37;
62631;PMS5003;48703;51.248;-0.546;2023-04-16T04:37:10;30.36;27.46;
62631;PMS5003;48703;51.248;-0.546;2023-04-16T04:40:12;35.38;32.62;
62631;PMS5003;48703;51.248;-0.546;2023-04-16T04:43:13;32.91;28.13;
62631;PMS5003;48703;51.248;-0.546;2023-04-16T04:46:15;28.47;27.21;
62631;PMS5003;48703;51.248;-0.546;2023-04-16T04:49:16;31.10;29.91;
62631;PMS5003;48703;51.248;-0.546;2023-04-16T04:52:17;30.35;28.59;
62631;PMS5003;48703;51.248;-0.546;2023-04-16T04:55:19;34.60;32.97;
62631;PMS5003;48703;51.248;-0.546;2023-04-16T04:58:20;33.54;31.97;
62631;PMS5003;48703;51.248;-0.546;2023-04-16T05:01:22;33.23;30.55;
62631;PMS5003;48703;51.248;-0.546;2023-04-16T05:04:23;29.68;28.39;
62631;PMS5003;48703;51.248;-0.546;2023-04-16T05:07:25;30.26;29.04;
62631;PMS5003;48703;51.248;-0.546;2023-04-16T05:10:26;31.09;27.58;
62631;PMS5003;48703;51.248;-0.546;2023-04-16T05:13:28;32.45;30.23;
62631;PMS5003;48703;51.248;-0.546;2023-04-16T05:16:29;28.68;27.74;
62631;PMS5003;48703;51.248;-0.546;2023-04-16T05:19:30;25.30;24.43;
62631;PMS5003;48703;51.248;-0.546;2023-04-16T05:22:32;24.77;24.07;
62631;PMS5003;48703;51.248;-0.546;2023-04-16T05:25:33;24.06;21.39;
62631;PMS5003;48703;51.248;-0.546;2023-04-16T05:28:34;21.81;21.73;
62631;PMS5003;48703;51.248;-0.546;2023-04-16T05:31:35;22.61;22.10;
62631;PMS5003;48703;51.248;-0.546;2023-04-16T05:34:37;24.43;23.74;
62631;PMS5003;48703;51.248;-0.546;2023-04-16T05:37:38;23.01;22.03;
62631;PMS5003;48703;51.248;-0.546;2023-04-16T05:40:40;25.30;23.35;
62631;PMS5003;48703;51.248;-0.546;2023-04-16T05:43:42;27.01;25.25;
62631;PMS5003;48703;51.248;-0.546;2023-04-16T05:46:43;27.59;25.58;
62631;PMS5003;48703;51.248;-0.546;2023-04-16T05:49:45;26.42;24.99;
62631;PMS5003;48703;51.248;-0.546;2023-04-16T05:52:46;28.70;25.94;
62631;PMS5003;48703;51.248;-0.546;2023-04-16T05:55:47;27.62;27.33;
62631;PMS5003;48703;51.248;-0.546;2023-04-16T05:58:49;29.41;28.87;
62631;PMS5003;48703;51.248;-0.546;2023-04-16T06:01:50;28.68;27.10;
62631;PMS5003;48703;51.248;-0.546;2023-04-16T06:04:52;28.84;25.97;
62631;PMS5003;48703;51.248;-0.546;2023-04-16T06:07:54;30.17;28.46;
62631;PMS5003;48703;51.248;-0.546;2023-04-16T06:10:56;33.17;28.93;
62631;PMS5003;48703;51.248;-0.546;2023-04-16T06:13:58;28.33;26.10;
62631;PMS5003;48703;51.248;-0.546;2023-04-16T06:17:00;30.35;30.06;
62631;PMS5003;48703;51.248;-0.546;2023-04-16T06:20:01;34.67;30.06;
62631;PMS5003;48703;51.248;-0.546;2023-04-16T06:23:02;31.49;30.17;
62631;PMS5003;48703;51.248;-0.546;2023-04-16T06:26:04;32.10;29.32;
62631;PMS5003;48703;51.248;-0.546;2023-04-16T06:29:06;30.97;28.06;
62631;PMS5003;48703;51.248;-0.546;2023-04-16T06:32:07;31.57;29.54;
62631;PMS5003;48703;51.248;-0.546;2023-04-16T06:35:09;28.81;27.64;
62631;PMS5003;48703;51.248;-0.546;2023-04-16T06:38:11;27.97;26.97;
62631;PMS5003;48703;51.248;-0.546;2023-04-16T06:41:12;29.84;28.35;
62631;PMS5003;48703;51.248;-0.546;2023-04-16T06:44:14;28.96;25.42;
62631;PMS5003;48703;51.248;-0.546;2023-04-16T06:47:15;28.73;24.84;
62631;PMS5003;48703;51.248;-0.546;2023-04-16T06:50:17;25.62;24.65;
62631;PMS5003;48703;51.248;-0.546;2023-04-16T06:53:18;28.07;23.79;
62631;PMS5003;48703;51.248;-0.546;2023-04-16T06:56:19;27.00;25.43;
62631;PMS5003;48703;51.248;-0.546;2023-04-16T06:59:21;26.09;24.26;
62631;PMS5003;48703;51.248;-0.546;2023-04-16T07:02:22;25.23;24.00;
62631;PMS5003;48703;51.248;-0.546;2023-04-16T07:05:24;27.47;26.24;
62631;PMS5003;48703;51.248;-0.546;2023-04-16T07:08:26;24.01;23.04;
62631;PMS5003;48703;51.248;-0.546;2023-04-16T07:11:28;22.51;22.37;
62631;PMS5003;48703;51.248;-0.546;2023-04-16T07:14:29;23.65;22.20;
62631;PMS5003;48703;51.248;-0.546;2023-04-16T07:17:31;25.04;24.16;
62631;PMS5003;48703;51.248;-0.546;2023-04-16T07:20:32;22.83;20.84;
62631;PMS5003;48703;51.248;-0.546;2023-04-16T07:23:34;22.43;20.94;
62631;PMS5003;48703;51.248;-0.546;2023-04-16T07:26:36;20.29;18.14;
62631;PMS5003;48703;51.248;-0.546;2023-04-16T07:29:38;18.27;18.27;
62631;PMS5003;48703;51.248;-0.546;2023-04-16T07:32:39;16.00;16.00;
62631;PMS5003;48703;51.248;-0.546;2023-04-16T07:35:41;16.67;16.04;
62631;PMS5003;48703;51.248;-0.546;2023-04-16T07:38:43;17.56;15.74;
62631;PMS5003;48703;51.248;-0.546;2023-04-16T07:41:44;20.22;19.57;
62631;PMS5003;48703;51.248;-0.546;2023-04-16T07:44:46;17.34;16.70;
62631;PMS5003;48703;51.248;-0.546;2023-04-16T07:47:48;20.17;18.43;
62631;PMS5003;48703;51.248;-0.546;2023-04-16T07:50:49;18.93;17.43;
62631;PMS5003;48703;51.248;-0.546;2023-04-16T07:53:51;16.99;15.90;
62631;PMS5003;48703;51.248;-0.546;2023-04-16T07:56:52;18.79;16.66;
62631;PMS5003;48703;51.248;-0.546;2023-04-16T07:59:54;17.41;16.14;
62631;PMS5003;48703;51.248;-0.546;2023-04-16T08:02:55;17.26;16.41;
62631;PMS5003;48703;51.248;-0.546;2023-04-16T08:05:57;16.07;15.59;
62631;PMS5003;48703;51.248;-0.546;2023-04-16T08:08:59;17.26;16.49;
62631;PMS5003;48703;51.248;-0.546;2023-04-16T08:12:00;16.16;15.86;
62631;PMS5003;48703;51.248;-0.546;2023-04-16T08:15:01;16.04;15.90;
62631;PMS5003;48703;51.248;-0.546;2023-04-16T08:18:03;16.46;15.19;
62631;PMS5003;48703;51.248;-0.546;2023-04-16T08:21:04;15.10;14.26;
62631;PMS5003;48703;51.248;-0.546;2023-04-16T08:24:06;13.90;13.56;
62631;PMS5003;48703;51.248;-0.546;2023-04-16T08:27:08;11.93;11.93;
62631;PMS5003;48703;51.248;-0.546;2023-04-16T08:30:09;10.61;9.73;
62631;PMS5003;48703;51.248;-0.546;2023-04-16T08:33:11;13.23;11.60;
62631;PMS5003;48703;51.248;-0.546;2023-04-16T08:36:13;13.59;12.56;
62631;PMS5003;48703;51.248;-0.546;2023-04-16T08:39:14;8.84;8.84;
62631;PMS5003;48703;51.248;-0.546;2023-04-16T08:42:18;5.00;4.93;
62631;PMS5003;48703;51.248;-0.546;2023-04-16T08:45:18;5.71;5.71;
62631;PMS5003;48703;51.248;-0.546;2023-04-16T08:48:19;6.11;5.80;
62631;PMS5003;48703;51.248;-0.546;2023-04-16T08:51:21;6.41;5.96;
62631;PMS5003;48703;51.248;-0.546;2023-04-16T08:54:28;7.24;6.60;
62631;PMS5003;48703;51.248;-0.546;2023-04-16T08:57:26;7.57;6.54;
62631;PMS5003;48703;51.248;-0.546;2023-04-16T09:00:26;7.93;7.49;
62631;PMS5003;48703;51.248;-0.546;2023-04-16T09:03:27;5.99;5.99;
62631;PMS5003;48703;51.248;-0.546;2023-04-16T09:06:29;5.47;5.47;
62631;PMS5003;48703;51.248;-0.546;2023-04-16T09:09:30;6.40;4.91;
62631;PMS5003;48703;51.248;-0.546;2023-04-16T09:12:32;8.49;8.26;
62631;PMS5003;48703;51.248;-0.546;2023-04-16T09:15:34;7.76;7.59;
62631;PMS5003;48703;51.248;-0.546;2023-04-16T09:18:35;4.94;4.59;
62631;PMS5003;48703;51.248;-0.546;2023-04-16T09:21:37;5.41;5.41;
62631;PMS5003;48703;51.248;-0.546;2023-04-16T09:24:38;6.31;6.01;
62631;PMS5003;48703;51.248;-0.546;2023-04-16T09:27:40;5.20;4.47;
62631;PMS5003;48703;51.248;-0.546;2023-04-16T09:30:42;3.84;3.84;
62631;PMS5003;48703;51.248;-0.546;2023-04-16T09:33:59;3.91;3.91;
62631;PMS5003;48703;51.248;-0.546;2023-04-16T09:36:45;3.10;3.10;
62631;PMS5003;48703;51.248;-0.546;2023-04-16T09:39:51;4.30;4.30;
62631;PMS5003;48703;51.248;-0.546;2023-04-16T09:42:48;6.23;5.74;
62631;PMS5003;48703;51.248;-0.546;2023-04-16T09:45:50;4.89;4.89;
62631;PMS5003;48703;51.248;-0.546;2023-04-16T09:48:51;7.27;6.53;
62631;PMS5003;48703;51.248;-0.546;2023-04-16T09:51:53;6.87;5.93;
62631;PMS5003;48703;51.248;-0.546;2023-04-16T09:54:54;4.81;4.81;
62631;PMS5003;48703;51.248;-0.546;2023-04-16T09:57:57;5.83;5.64;
62631;PMS5003;48703;51.248;-0.546;2023-04-16T10:00:59;5.51;5.30;
62631;PMS5003;48703;51.248;-0.546;2023-04-16T10:03:59;6.50;5.17;
62631;PMS5003;48703;51.248;-0.546;2023-04-16T10:07:01;5.03;5.03;
62631;PMS5003;48703;51.248;-0.546;2023-04-16T10:10:02;4.81;4.59;
62631;PMS5003;48703;51.248;-0.546;2023-04-16T10:13:04;3.87;3.87;
62631;PMS5003;48703;51.248;-0.546;2023-04-16T10:16:06;4.33;4.11;
62631;PMS5003;48703;51.248;-0.546;2023-04-16T10:19:07;4.24;4.06;
62631;PMS5003;48703;51.248;-0.546;2023-04-16T10:22:09;3.53;3.53;
62631;PMS5003;48703;51.248;-0.546;2023-04-16T10:25:10;5.07;4.29;
62631;PMS5003;48703;51.248;-0.546;2023-04-16T10:28:12;3.86;3.86;
62631;PMS5003;48703;51.248;-0.546;2023-04-16T10:31:13;5.03;3.83;
62631;PMS5003;48703;51.248;-0.546;2023-04-16T10:34:15;4.20;3.94;
62631;PMS5003;48703;51.248;-0.546;2023-04-16T10:37:16;4.04;3.96;
62631;PMS5003;48703;51.248;-0.546;2023-04-16T10:40:21;3.83;3.83;
62631;PMS5003;48703;51.248;-0.546;2023-04-16T10:43:19;4.24;4.09;
62631;PMS5003;48703;51.248;-0.546;2023-04-16T10:46:21;4.29;3.77;
62631;PMS5003;48703;51.248;-0.546;2023-04-16T10:49:23;1.96;1.96;
62631;PMS5003;48703;51.248;-0.546;2023-04-16T10:52:24;4.13;3.31;
62631;PMS5003;48703;51.248;-0.546;2023-04-16T10:55:26;3.14;2.76;
62631;PMS5003;48703;51.248;-0.546;2023-04-16T10:58:27;3.53;2.74;
62631;PMS5003;48703;51.248;-0.546;2023-04-16T11:01:30;1.79;1.79;
62631;PMS5003;48703;51.248;-0.546;2023-04-16T11:04:34;2.21;2.21;
62631;PMS5003;48703;51.248;-0.546;2023-04-16T11:07:32;2.83;2.57;
62631;PMS5003;48703;51.248;-0.546;2023-04-16T11:10:37;1.93;1.76;
62631;PMS5003;48703;51.248;-0.546;2023-04-16T11:13:35;3.56;2.89;
62631;PMS5003;48703;51.248;-0.546;2023-04-16T11:16:39;3.64;3.51;
62631;PMS5003;48703;51.248;-0.546;2023-04-16T11:19:38;4.84;4.63;
62631;PMS5003;48703;51.248;-0.546;2023-04-16T11:22:39;4.49;4.49;
62631;PMS5003;48703;51.248;-0.546;2023-04-16T11:25:41;5.01;4.06;
62631;PMS5003;48703;51.248;-0.546;2023-04-16T11:28:42;3.43;3.00;
62631;PMS5003;48703;51.248;-0.546;2023-04-16T11:31:48;3.41;3.11;
62631;PMS5003;48703;51.248;-0.546;2023-04-16T11:34:45;3.16;3.03;
62631;PMS5003;48703;51.248;-0.546;2023-04-16T11:37:47;4.29;3.81;
62631;PMS5003;48703;51.248;-0.546;2023-04-16T11:40:48;3.21;3.11;
62631;PMS5003;48703;51.248;-0.546;2023-04-16T11:43:50;3.34;2.44;
62631;PMS5003;48703;51.248;-0.546;2023-04-16T11:46:52;2.43;2.43;
62631;PMS5003;48703;51.248;-0.546;2023-04-16T11:49:53;2.01;2.01;
62631;PMS5003;48703;51.248;-0.546;2023-04-16T11:52:55;2.11;1.56;
62631;PMS5003;48703;51.248;-0.546;2023-04-16T11:55:56;2.21;1.57;
62631;PMS5003;48703;51.248;-0.546;2023-04-16T11:59:05;1.97;1.39;
62631;PMS5003;48703;51.248;-0.546;2023-04-16T12:01:59;2.33;2.24;
62631;PMS5003;48703;51.248;-0.546;2023-04-16T12:05:01;1.80;1.33;
62631;PMS5003;48703;51.248;-0.546;2023-04-16T12:08:03;1.40;1.40;
62631;PMS5003;48703;51.248;-0.546;2023-04-16T12:11:03;1.77;1.77;
62631;PMS5003;48703;51.248;-0.546;2023-04-16T12:14:05;2.31;2.31;
62631;PMS5003;48703;51.248;-0.546;2023-04-16T12:17:22;1.69;1.51;
62631;PMS5003;48703;51.248;-0.546;2023-04-16T12:20:09;2.44;1.50;
62631;PMS5003;48703;51.248;-0.546;2023-04-16T12:23:10;1.19;0.80;
62631;PMS5003;48703;51.248;-0.546;2023-04-16T12:26:11;1.11;1.11;
62631;PMS5003;48703;51.248;-0.546;2023-04-16T12:29:13;2.23;2.23;
62631;PMS5003;48703;51.248;-0.546;2023-04-16T12:32:20;1.74;1.74;
62631;PMS5003;48703;51.248;-0.546;2023-04-16T12:35:28;1.89;1.89;
62631;PMS5003;48703;51.248;-0.546;2023-04-16T12:38:17;2.76;2.37;
62631;PMS5003;48703;51.248;-0.546;2023-04-16T12:41:18;1.57;1.57;
62631;PMS5003;48703;51.248;-0.546;2023-04-16T12:44:20;2.14;1.93;
62631;PMS5003;48703;51.248;-0.546;2023-04-16T12:47:21;2.14;2.14;
62631;PMS5003;48703;51.248;-0.546;2023-04-16T12:50:23;1.80;1.80;
62631;PMS5003;48703;51.248;-0.546;2023-04-16T12:53:24;1.26;1.26;
62631;PMS5003;48703;51.248;-0.546;2023-04-16T12:56:26;1.34;1.34;
62631;PMS5003;48703;51.248;-0.546;2023-04-16T12:59:27;2.21;1.87;
62631;PMS5003;48703;51.248;-0.546;2023-04-16T13:02:29;2.36;1.93;
62631;PMS5003;48703;51.248;-0.546;2023-04-16T13:05:30;2.11;1.17;
62631;PMS5003;48703;51.248;-0.546;2023-04-16T13:08:32;2.11;2.11;
62631;PMS5003;48703;51.248;-0.546;2023-04-16T13:11:33;1.70;1.70;
62631;PMS5003;48703;51.248;-0.546;2023-04-16T13:14:35;2.17;1.81;
62631;PMS5003;48703;51.248;-0.546;2023-04-16T13:17:36;2.09;1.40;
62631;PMS5003;48703;51.248;-0.546;2023-04-16T13:20:38;1.40;1.40;
62631;PMS5003;48703;51.248;-0.546;2023-04-16T13:23:39;1.06;1.06;
62631;PMS5003;48703;51.248;-0.546;2023-04-16T13:26:41;1.99;1.99;
62631;PMS5003;48703;51.248;-0.546;2023-04-16T13:29:42;1.84;1.33;
62631;PMS5003;48703;51.248;-0.546;2023-04-16T13:32:44;1.61;1.61;
62631;PMS5003;48703;51.248;-0.546;2023-04-16T13:35:45;2.43;2.00;
62631;PMS5003;48703;51.248;-0.546;2023-04-16T13:38:47;1.63;0.91;
62631;PMS5003;48703;51.248;-0.546;2023-04-16T13:41:48;1.83;1.83;
62631;PMS5003;48703;51.248;-0.546;2023-04-16T13:44:50;2.49;1.71;
62631;PMS5003;48703;51.248;-0.546;2023-04-16T13:47:51;1.37;1.37;
62631;PMS5003;48703;51.248;-0.546;2023-04-16T13:50:53;1.97;1.50;
62631;PMS5003;48703;51.248;-0.546;2023-04-16T13:53:54;1.66;1.66;
62631;PMS5003;48703;51.248;-0.546;2023-04-16T13:56:56;1.39;1.39;
62631;PMS5003;48703;51.248;-0.546;2023-04-16T13:59:57;1.54;1.40;
62631;PMS5003;48703;51.248;-0.546;2023-04-16T14:02:59;1.30;1.30;
62631;PMS5003;48703;51.248;-0.546;2023-04-16T14:06:00;2.57;1.71;
62631;PMS5003;48703;51.248;-0.546;2023-04-16T14:09:02;8.34;7.57;
62631;PMS5003;48703;51.248;-0.546;2023-04-16T14:12:03;8.03;6.66;
62631;PMS5003;48703;51.248;-0.546;2023-04-16T14:15:05;2.76;2.76;
62631;PMS5003;48703;51.248;-0.546;2023-04-16T14:18:06;21.29;19.99;
62631;PMS5003;48703;51.248;-0.546;2023-04-16T14:21:08;5.96;5.96;
62631;PMS5003;48703;51.248;-0.546;2023-04-16T14:24:09;10.53;10.53;
62631;PMS5003;48703;51.248;-0.546;2023-04-16T14:27:10;22.29;21.96;
62631;PMS5003;48703;51.248;-0.546;2023-04-16T14:30:12;6.01;6.01;
62631;PMS5003;48703;51.248;-0.546;2023-04-16T14:33:13;5.19;4.89;
62631;PMS5003;48703;51.248;-0.546;2023-04-16T14:36:14;8.26;6.97;
62631;PMS5003;48703;51.248;-0.546;2023-04-16T14:39:16;2.56;2.34;
62631;PMS5003;48703;51.248;-0.546;2023-04-16T14:42:17;2.96;2.40;
62631;PMS5003;48703;51.248;-0.546;2023-04-16T14:45:19;3.61;3.06;
62631;PMS5003;48703;51.248;-0.546;2023-04-16T14:48:20;2.33;1.86;
62631;PMS5003;48703;51.248;-0.546;2023-04-16T14:51:22;5.01;5.01;
62631;PMS5003;48703;51.248;-0.546;2023-04-16T14:54:23;10.41;9.64;
62631;PMS5003;48703;51.248;-0.546;2023-04-16T14:57:25;10.69;10.69;
62631;PMS5003;48703;51.248;-0.546;2023-04-16T15:00:26;8.10;7.37;
62631;PMS5003;48703;51.248;-0.546;2023-04-16T15:03:28;7.66;6.67;
62631;PMS5003;48703;51.248;-0.546;2023-04-16T15:06:29;4.11;3.46;
62631;PMS5003;48703;51.248;-0.546;2023-04-16T15:09:32;3.63;3.37;
62631;PMS5003;48703;51.248;-0.546;2023-04-16T15:12:32;3.03;3.03;
62631;PMS5003;48703;51.248;-0.546;2023-04-16T15:15:34;4.10;3.67;
62631;PMS5003;48703;51.248;-0.546;2023-04-16T15:18:35;4.06;3.59;
62631;PMS5003;48703;51.248;-0.546;2023-04-16T15:21:37;2.86;2.86;
62631;PMS5003;48703;51.248;-0.546;2023-04-16T15:24:38;4.17;3.14;
62631;PMS5003;48703;51.248;-0.546;2023-04-16T15:27:40;2.79;2.79;
62631;PMS5003;48703;51.248;-0.546;2023-04-16T15:30:41;3.43;3.16;
62631;PMS5003;48703;51.248;-0.546;2023-04-16T15:33:43;2.41;2.41;
62631;PMS5003;48703;51.248;-0.546;2023-04-16T15:36:44;2.44;2.44;
62631;PMS5003;48703;51.248;-0.546;2023-04-16T15:39:45;3.13;3.13;
62631;PMS5003;48703;51.248;-0.546;2023-04-16T15:42:47;3.17;2.36;
62631;PMS5003;48703;51.248;-0.546;2023-04-16T15:45:48;2.63;2.51;
62631;PMS5003;48703;51.248;-0.546;2023-04-16T15:48:50;2.97;2.43;
62631;PMS5003;48703;51.248;-0.546;2023-04-16T15:51:51;2.23;2.03;
62631;PMS5003;48703;51.248;-0.546;2023-04-16T15:54:53;2.47;2.39;
62631;PMS5003;48703;51.248;-0.546;2023-04-16T15:57:54;3.56;2.84;
62631;PMS5003;48703;51.248;-0.546;2023-04-16T16:00:55;3.09;3.09;
62631;PMS5003;48703;51.248;-0.546;2023-04-16T16:03:57;3.36;3.11;
62631;PMS5003;48703;51.248;-0.546;2023-04-16T16:06:58;3.27;3.27;
62631;PMS5003;48703;51.248;-0.546;2023-04-16T16:10:00;3.73;3.34;
62631;PMS5003;48703;51.248;-0.546;2023-04-16T16:13:01;2.44;2.44;
62631;PMS5003;48703;51.248;-0.546;2023-04-16T16:16:03;2.89;2.37;
62631;PMS5003;48703;51.248;-0.546;2023-04-16T16:19:04;3.56;2.46;
62631;PMS5003;48703;51.248;-0.546;2023-04-16T16:22:06;2.87;2.87;
62631;PMS5003;48703;51.248;-0.546;2023-04-16T16:25:07;3.03;2.84;
62631;PMS5003;48703;51.248;-0.546;2023-04-16T16:28:09;3.50;2.43;
62631;PMS5003;48703;51.248;-0.546;2023-04-16T16:31:10;2.50;2.50;
62631;PMS5003;48703;51.248;-0.546;2023-04-16T16:34:12;3.79;3.04;
62631;PMS5003;48703;51.248;-0.546;2023-04-16T16:37:13;3.13;3.13;
62631;PMS5003;48703;51.248;-0.546;2023-04-16T16:40:15;1.93;1.93;
62631;PMS5003;48703;51.248;-0.546;2023-04-16T16:43:16;3.27;2.53;
62631;PMS5003;48703;51.248;-0.546;2023-04-16T16:46:18;3.70;3.23;
62631;PMS5003;48703;51.248;-0.546;2023-04-16T16:49:19;3.39;2.91;
62631;PMS5003;48703;51.248;-0.546;2023-04-16T16:52:21;4.04;3.74;
62631;PMS5003;48703;51.248;-0.546;2023-04-16T16:55:22;3.99;2.74;
62631;PMS5003;48703;51.248;-0.546;2023-04-16T16:58:23;2.83;2.83;
62631;PMS5003;48703;51.248;-0.546;2023-04-16T17:01:25;3.14;2.97;
62631;PMS5003;48703;51.248;-0.546;2023-04-16T17:04:26;3.21;3.21;
62631;PMS5003;48703;51.248;-0.546;2023-04-16T17:07:28;2.23;2.23;
62631;PMS5003;48703;51.248;-0.546;2023-04-16T17:10:29;3.13;3.13;
62631;PMS5003;48703;51.248;-0.546;2023-04-16T17:13:30;2.70;2.46;
62631;PMS5003;48703;51.248;-0.546;2023-04-16T17:16:32;2.19;1.89;
62631;PMS5003;48703;51.248;-0.546;2023-04-16T17:19:33;2.87;2.66;
62631;PMS5003;48703;51.248;-0.546;2023-04-16T17:22:35;2.96;2.81;
62631;PMS5003;48703;51.248;-0.546;2023-04-16T17:25:36;3.39;2.83;
62631;PMS5003;48703;51.248;-0.546;2023-04-16T17:28:38;3.37;3.37;
62631;PMS5003;48703;51.248;-0.546;2023-04-16T17:31:39;3.84;2.64;
62631;PMS5003;48703;51.248;-0.546;2023-04-16T17:34:41;3.27;3.27;
62631;PMS5003;48703;51.248;-0.546;2023-04-16T17:37:42;3.00;2.70;
62631;PMS5003;48703;51.248;-0.546;2023-04-16T17:40:44;3.77;3.77;
62631;PMS5003;48703;51.248;-0.546;2023-04-16T17:43:46;3.76;3.53;
62631;PMS5003;48703;51.248;-0.546;2023-04-16T17:46:47;4.31;3.46;
62631;PMS5003;48703;51.248;-0.546;2023-04-16T17:49:51;3.56;3.13;
62631;PMS5003;48703;51.248;-0.546;2023-04-16T17:52:50;2.64;2.64;
62631;PMS5003;48703;51.248;-0.546;2023-04-16T17:55:51;3.77;3.77;
62631;PMS5003;48703;51.248;-0.546;2023-04-16T17:58:53;5.04;3.90;
62631;PMS5003;48703;51.248;-0.546;2023-04-16T18:01:54;3.40;2.63;
62631;PMS5003;48703;51.248;-0.546;2023-04-16T18:04:56;4.79;3.54;
62631;PMS5003;48703;51.248;-0.546;2023-04-16T18:07:57;4.87;4.40;
62631;PMS5003;48703;51.248;-0.546;2023-04-16T18:10:59;3.99;3.69;
62631;PMS5003;48703;51.248;-0.546;2023-04-16T18:14:01;3.29;2.86;